sensor_id;sensor_type;location;lat;lon;timestamp;P1;durP1;ratioP1;P2;durP2;ratioP2
45232;SDS011;30969;51.052;17.056;2022-09-02T00:03:15;3.28;;;1.88;;
45232;SDS011;30969;51.052;17.056;2022-09-02T00:08:20;3.75;;;2.10;;
45232;SDS011;30969;51.052;17.056;2022-09-02T00:13:24;5.13;;;2.20;;
45232;SDS011;30969;51.052;17.056;2022-09-02T00:18:27;5.07;;;2.53;;
45232;SDS011;30969;51.052;17.056;2022-09-02T00:23:33;4.88;;;2.55;;
45232;SDS011;30969;51.052;17.056;2022-09-02T00:28:36;5.85;;;2.28;;
45232;SDS011;30969;51.052;17.056;2022-09-02T00:38:54;3.85;;;2.08;;
45232;SDS011;30969;51.052;17.056;2022-09-02T00:43:58;4.65;;;2.25;;
45232;SDS011;30969;51.052;17.056;2022-09-02T00:49:05;3.65;;;2.38;;
45232;SDS011;30969;51.052;17.056;2022-09-02T00:54:14;4.88;;;2.13;;
45232;SDS011;30969;51.052;17.056;2022-09-02T00:59:19;3.75;;;2.25;;
45232;SDS011;30969;51.052;17.056;2022-09-02T01:04:25;4.70;;;2.25;;
45232;SDS011;30969;51.052;17.056;2022-09-02T01:09:31;3.92;;;2.75;;
45232;SDS011;30969;51.052;17.056;2022-09-02T01:14:34;3.97;;;2.53;;
45232;SDS011;30969;51.052;17.056;2022-09-02T01:19:39;5.50;;;2.55;;
45232;SDS011;30969;51.052;17.056;2022-09-02T01:24:49;3.90;;;2.05;;
45232;SDS011;30969;51.052;17.056;2022-09-02T01:29:56;4.53;;;2.35;;
45232;SDS011;30969;51.052;17.056;2022-09-02T01:35:01;8.48;;;2.80;;
45232;SDS011;30969;51.052;17.056;2022-09-02T01:40:08;4.93;;;2.30;;
45232;SDS011;30969;51.052;17.056;2022-09-02T01:45:17;6.00;;;2.60;;
45232;SDS011;30969;51.052;17.056;2022-09-02T01:50:20;4.15;;;2.50;;
45232;SDS011;30969;51.052;17.056;2022-09-02T01:55:25;4.63;;;2.20;;
45232;SDS011;30969;51.052;17.056;2022-09-02T02:00:29;4.20;;;2.40;;
45232;SDS011;30969;51.052;17.056;2022-09-02T02:05:33;4.45;;;2.88;;
45232;SDS011;30969;51.052;17.056;2022-09-02T02:10:40;5.25;;;3.05;;
45232;SDS011;30969;51.052;17.056;2022-09-02T02:15:44;4.45;;;2.40;;
45232;SDS011;30969;51.052;17.056;2022-09-02T02:20:48;4.10;;;2.58;;
45232;SDS011;30969;51.052;17.056;2022-09-02T02:25:54;5.40;;;2.65;;
45232;SDS011;30969;51.052;17.056;2022-09-02T02:30:57;4.60;;;2.30;;
45232;SDS011;30969;51.052;17.056;2022-09-02T02:36:01;4.57;;;2.28;;
45232;SDS011;30969;51.052;17.056;2022-09-02T02:41:08;4.30;;;2.47;;
45232;SDS011;30969;51.052;17.056;2022-09-02T02:46:11;5.55;;;3.10;;
45232;SDS011;30969;51.052;17.056;2022-09-02T02:51:16;5.35;;;2.85;;
45232;SDS011;30969;51.052;17.056;2022-09-02T02:56:21;3.83;;;2.50;;
45232;SDS011;30969;51.052;17.056;2022-09-02T03:01:24;7.90;;;2.90;;
45232;SDS011;30969;51.052;17.056;2022-09-02T03:06:28;3.95;;;2.60;;
45232;SDS011;30969;51.052;17.056;2022-09-02T03:11:32;4.85;;;2.72;;
45232;SDS011;30969;51.052;17.056;2022-09-02T03:16:36;13.20;;;3.33;;
45232;SDS011;30969;51.052;17.056;2022-09-02T03:21:39;6.68;;;3.35;;
45232;SDS011;30969;51.052;17.056;2022-09-02T03:26:44;5.15;;;3.22;;
45232;SDS011;30969;51.052;17.056;2022-09-02T03:31:48;4.80;;;3.13;;
45232;SDS011;30969;51.052;17.056;2022-09-02T03:36:54;5.90;;;2.85;;
45232;SDS011;30969;51.052;17.056;2022-09-02T03:41:59;6.75;;;3.17;;
45232;SDS011;30969;51.052;17.056;2022-09-02T03:47:06;6.75;;;2.90;;
45232;SDS011;30969;51.052;17.056;2022-09-02T03:52:10;9.48;;;2.83;;
45232;SDS011;30969;51.052;17.056;2022-09-02T03:57:15;4.55;;;2.72;;
45232;SDS011;30969;51.052;17.056;2022-09-02T04:02:19;5.53;;;2.55;;
45232;SDS011;30969;51.052;17.056;2022-09-02T04:07:22;3.88;;;2.70;;
45232;SDS011;30969;51.052;17.056;2022-09-02T04:12:27;7.60;;;2.25;;
45232;SDS011;30969;51.052;17.056;2022-09-02T04:17:34;4.20;;;2.60;;
45232;SDS011;30969;51.052;17.056;2022-09-02T04:22:38;7.72;;;3.03;;
45232;SDS011;30969;51.052;17.056;2022-09-02T04:27:43;4.50;;;2.60;;
45232;SDS011;30969;51.052;17.056;2022-09-02T04:32:46;4.57;;;3.30;;
45232;SDS011;30969;51.052;17.056;2022-09-02T04:37:50;4.30;;;2.58;;
45232;SDS011;30969;51.052;17.056;2022-09-02T04:42:54;5.55;;;2.92;;
45232;SDS011;30969;51.052;17.056;2022-09-02T04:47:58;8.25;;;3.08;;
45232;SDS011;30969;51.052;17.056;2022-09-02T04:53:01;5.10;;;2.72;;
45232;SDS011;30969;51.052;17.056;2022-09-02T04:58:06;7.75;;;2.65;;
45232;SDS011;30969;51.052;17.056;2022-09-02T05:03:10;10.02;;;3.15;;
45232;SDS011;30969;51.052;17.056;2022-09-02T05:08:13;7.10;;;3.25;;
45232;SDS011;30969;51.052;17.056;2022-09-02T05:13:20;7.15;;;3.30;;
45232;SDS011;30969;51.052;17.056;2022-09-02T05:18:24;6.35;;;3.28;;
45232;SDS011;30969;51.052;17.056;2022-09-02T05:23:28;4.90;;;2.97;;
45232;SDS011;30969;51.052;17.056;2022-09-02T05:28:32;5.68;;;3.08;;
45232;SDS011;30969;51.052;17.056;2022-09-02T05:33:36;6.38;;;2.92;;
45232;SDS011;30969;51.052;17.056;2022-09-02T05:38:41;5.93;;;2.97;;
45232;SDS011;30969;51.052;17.056;2022-09-02T05:43:47;9.30;;;4.15;;
45232;SDS011;30969;51.052;17.056;2022-09-02T05:48:52;5.70;;;3.78;;
45232;SDS011;30969;51.052;17.056;2022-09-02T05:54:10;9.82;;;3.55;;
45232;SDS011;30969;51.052;17.056;2022-09-02T05:59:17;7.63;;;2.72;;
45232;SDS011;30969;51.052;17.056;2022-09-02T06:04:21;6.72;;;2.53;;
45232;SDS011;30969;51.052;17.056;2022-09-02T06:09:25;5.95;;;2.20;;
45232;SDS011;30969;51.052;17.056;2022-09-02T06:14:30;3.00;;;1.98;;
45232;SDS011;30969;51.052;17.056;2022-09-02T06:19:34;5.28;;;2.17;;
45232;SDS011;30969;51.052;17.056;2022-09-02T06:24:38;4.20;;;2.13;;
45232;SDS011;30969;51.052;17.056;2022-09-02T06:29:43;6.93;;;1.77;;
45232;SDS011;30969;51.052;17.056;2022-09-02T06:34:46;3.17;;;1.70;;
45232;SDS011;30969;51.052;17.056;2022-09-02T06:39:50;3.50;;;2.05;;
45232;SDS011;30969;51.052;17.056;2022-09-02T06:44:57;4.10;;;1.63;;
45232;SDS011;30969;51.052;17.056;2022-09-02T06:50:01;3.60;;;1.70;;
45232;SDS011;30969;51.052;17.056;2022-09-02T06:55:05;3.30;;;1.70;;
45232;SDS011;30969;51.052;17.056;2022-09-02T07:00:11;2.45;;;1.65;;
45232;SDS011;30969;51.052;17.056;2022-09-02T07:05:15;4.32;;;1.48;;
45232;SDS011;30969;51.052;17.056;2022-09-02T07:10:18;3.70;;;1.65;;
45232;SDS011;30969;51.052;17.056;2022-09-02T07:15:23;1.80;;;1.25;;
45232;SDS011;30969;51.052;17.056;2022-09-02T07:20:27;6.18;;;1.30;;
45232;SDS011;30969;51.052;17.056;2022-09-02T07:25:30;2.53;;;1.20;;
45232;SDS011;30969;51.052;17.056;2022-09-02T07:30:35;2.88;;;1.30;;
45232;SDS011;30969;51.052;17.056;2022-09-02T07:35:40;2.25;;;1.40;;
45232;SDS011;30969;51.052;17.056;2022-09-02T07:40:44;2.42;;;1.40;;
45232;SDS011;30969;51.052;17.056;2022-09-02T07:45:50;1.65;;;0.93;;
45232;SDS011;30969;51.052;17.056;2022-09-02T07:50:56;2.50;;;1.10;;
45232;SDS011;30969;51.052;17.056;2022-09-02T07:56:01;1.42;;;0.98;;
45232;SDS011;30969;51.052;17.056;2022-09-02T08:01:06;2.35;;;1.05;;
45232;SDS011;30969;51.052;17.056;2022-09-02T08:06:10;3.03;;;0.93;;
45232;SDS011;30969;51.052;17.056;2022-09-02T08:11:14;3.72;;;1.27;;
45232;SDS011;30969;51.052;17.056;2022-09-02T08:16:19;2.38;;;0.73;;
45232;SDS011;30969;51.052;17.056;2022-09-02T08:21:23;2.22;;;0.90;;
45232;SDS011;30969;51.052;17.056;2022-09-02T08:26:27;2.90;;;0.82;;
45232;SDS011;30969;51.052;17.056;2022-09-02T08:31:32;6.55;;;1.00;;
45232;SDS011;30969;51.052;17.056;2022-09-02T08:36:36;4.22;;;0.90;;
45232;SDS011;30969;51.052;17.056;2022-09-02T08:41:46;1.60;;;0.65;;
45232;SDS011;30969;51.052;17.056;2022-09-02T08:47:07;0.88;;;0.60;;
45232;SDS011;30969;51.052;17.056;2022-09-02T08:52:16;1.15;;;0.57;;
45232;SDS011;30969;51.052;17.056;2022-09-02T08:57:27;3.97;;;0.63;;
45232;SDS011;30969;51.052;17.056;2022-09-02T09:02:37;2.58;;;0.98;;
45232;SDS011;30969;51.052;17.056;2022-09-02T09:07:53;1.67;;;0.70;;
45232;SDS011;30969;51.052;17.056;2022-09-02T09:13:17;3.80;;;0.68;;
45232;SDS011;30969;51.052;17.056;2022-09-02T09:18:39;3.90;;;1.33;;
45232;SDS011;30969;51.052;17.056;2022-09-02T09:28:54;1.92;;;0.70;;
45232;SDS011;30969;51.052;17.056;2022-09-02T09:34:02;2.25;;;0.95;;
45232;SDS011;30969;51.052;17.056;2022-09-02T09:39:15;1.25;;;0.55;;
45232;SDS011;30969;51.052;17.056;2022-09-02T09:44:27;1.15;;;0.63;;
45232;SDS011;30969;51.052;17.056;2022-09-02T09:49:43;3.70;;;1.00;;
45232;SDS011;30969;51.052;17.056;2022-09-02T09:54:54;3.13;;;0.98;;
45232;SDS011;30969;51.052;17.056;2022-09-02T10:00:27;2.60;;;1.00;;
45232;SDS011;30969;51.052;17.056;2022-09-02T10:05:35;1.10;;;0.50;;
45232;SDS011;30969;51.052;17.056;2022-09-02T10:10:39;0.95;;;0.52;;
45232;SDS011;30969;51.052;17.056;2022-09-02T10:16:11;3.45;;;0.60;;
45232;SDS011;30969;51.052;17.056;2022-09-02T10:21:34;4.15;;;0.82;;
45232;SDS011;30969;51.052;17.056;2022-09-02T10:26:51;1.40;;;0.80;;
45232;SDS011;30969;51.052;17.056;2022-09-02T10:32:05;3.67;;;1.00;;
45232;SDS011;30969;51.052;17.056;2022-09-02T10:37:40;7.82;;;1.17;;
45232;SDS011;30969;51.052;17.056;2022-09-02T10:42:57;4.30;;;0.88;;
45232;SDS011;30969;51.052;17.056;2022-09-02T10:48:22;3.92;;;0.90;;
45232;SDS011;30969;51.052;17.056;2022-09-02T10:53:34;3.80;;;0.82;;
45232;SDS011;30969;51.052;17.056;2022-09-02T10:58:47;2.95;;;0.68;;
45232;SDS011;30969;51.052;17.056;2022-09-02T11:04:00;1.30;;;0.52;;
45232;SDS011;30969;51.052;17.056;2022-09-02T11:09:12;1.05;;;0.70;;
45232;SDS011;30969;51.052;17.056;2022-09-02T11:14:25;1.58;;;0.60;;
45232;SDS011;30969;51.052;17.056;2022-09-02T11:19:34;0.88;;;0.60;;
45232;SDS011;30969;51.052;17.056;2022-09-02T11:24:45;1.27;;;0.70;;
45232;SDS011;30969;51.052;17.056;2022-09-02T11:29:56;1.33;;;0.40;;
45232;SDS011;30969;51.052;17.056;2022-09-02T11:35:05;0.88;;;0.60;;
45232;SDS011;30969;51.052;17.056;2022-09-02T11:40:13;2.22;;;0.50;;
45232;SDS011;30969;51.052;17.056;2022-09-02T11:51:10;1.25;;;0.60;;
45232;SDS011;30969;51.052;17.056;2022-09-02T11:56:39;1.15;;;0.60;;
45232;SDS011;30969;51.052;17.056;2022-09-02T12:01:47;0.82;;;0.50;;
45232;SDS011;30969;51.052;17.056;2022-09-02T12:18:25;1.45;;;0.70;;
45232;SDS011;30969;51.052;17.056;2022-09-02T12:29:12;1.55;;;0.70;;
45232;SDS011;30969;51.052;17.056;2022-09-02T12:39:55;1.02;;;0.63;;
45232;SDS011;30969;51.052;17.056;2022-09-02T12:45:21;1.02;;;0.60;;
45232;SDS011;30969;51.052;17.056;2022-09-02T12:50:30;0.80;;;0.40;;
45232;SDS011;30969;51.052;17.056;2022-09-02T12:55:53;1.08;;;0.40;;
45232;SDS011;30969;51.052;17.056;2022-09-02T13:01:02;1.77;;;0.50;;
45232;SDS011;30969;51.052;17.056;2022-09-02T13:06:20;0.65;;;0.50;;
45232;SDS011;30969;51.052;17.056;2022-09-02T13:11:40;0.85;;;0.50;;
45232;SDS011;30969;51.052;17.056;2022-09-02T13:17:14;2.78;;;0.77;;
45232;SDS011;30969;51.052;17.056;2022-09-02T13:28:01;1.80;;;0.70;;
45232;SDS011;30969;51.052;17.056;2022-09-02T13:33:30;1.80;;;0.70;;
45232;SDS011;30969;51.052;17.056;2022-09-02T13:38:34;2.17;;;0.82;;
45232;SDS011;30969;51.052;17.056;2022-09-02T13:43:40;2.13;;;0.63;;
45232;SDS011;30969;51.052;17.056;2022-09-02T13:48:45;3.53;;;0.90;;
45232;SDS011;30969;51.052;17.056;2022-09-02T13:53:48;3.55;;;0.68;;
45232;SDS011;30969;51.052;17.056;2022-09-02T13:59:11;1.95;;;0.60;;
45232;SDS011;30969;51.052;17.056;2022-09-02T14:04:17;4.28;;;0.80;;
45232;SDS011;30969;51.052;17.056;2022-09-02T14:09:21;1.42;;;0.90;;
45232;SDS011;30969;51.052;17.056;2022-09-02T14:14:26;0.68;;;0.60;;
45232;SDS011;30969;51.052;17.056;2022-09-02T14:19:32;3.80;;;0.70;;
45232;SDS011;30969;51.052;17.056;2022-09-02T14:24:36;1.55;;;0.65;;
45232;SDS011;30969;51.052;17.056;2022-09-02T14:29:42;0.88;;;0.50;;
45232;SDS011;30969;51.052;17.056;2022-09-02T14:34:48;1.75;;;0.80;;
45232;SDS011;30969;51.052;17.056;2022-09-02T14:40:11;1.48;;;0.50;;
45232;SDS011;30969;51.052;17.056;2022-09-02T14:45:22;1.38;;;0.70;;
45232;SDS011;30969;51.052;17.056;2022-09-02T14:50:29;2.25;;;0.80;;
45232;SDS011;30969;51.052;17.056;2022-09-02T14:55:47;2.25;;;0.82;;
45232;SDS011;30969;51.052;17.056;2022-09-02T15:00:53;3.78;;;0.90;;
45232;SDS011;30969;51.052;17.056;2022-09-02T15:06:00;1.15;;;0.55;;
45232;SDS011;30969;51.052;17.056;2022-09-02T15:11:03;2.45;;;0.80;;
45232;SDS011;30969;51.052;17.056;2022-09-02T15:16:07;2.00;;;0.65;;
45232;SDS011;30969;51.052;17.056;2022-09-02T15:21:11;2.35;;;1.00;;
45232;SDS011;30969;51.052;17.056;2022-09-02T15:26:15;3.35;;;0.90;;
45232;SDS011;30969;51.052;17.056;2022-09-02T15:31:19;2.80;;;0.90;;
45232;SDS011;30969;51.052;17.056;2022-09-02T15:36:24;1.10;;;0.60;;
45232;SDS011;30969;51.052;17.056;2022-09-02T15:41:28;2.15;;;0.95;;
45232;SDS011;30969;51.052;17.056;2022-09-02T15:46:32;1.45;;;0.70;;
45232;SDS011;30969;51.052;17.056;2022-09-02T15:51:39;3.03;;;0.77;;
45232;SDS011;30969;51.052;17.056;2022-09-02T15:56:46;2.35;;;0.88;;
45232;SDS011;30969;51.052;17.056;2022-09-02T16:01:51;1.83;;;0.93;;
45232;SDS011;30969;51.052;17.056;2022-09-02T16:06:58;4.05;;;1.08;;
45232;SDS011;30969;51.052;17.056;2022-09-02T16:12:02;2.92;;;0.88;;
45232;SDS011;30969;51.052;17.056;2022-09-02T16:17:06;2.45;;;1.10;;
45232;SDS011;30969;51.052;17.056;2022-09-02T16:22:12;1.77;;;1.05;;
45232;SDS011;30969;51.052;17.056;2022-09-02T16:27:15;4.15;;;1.23;;
45232;SDS011;30969;51.052;17.056;2022-09-02T16:32:39;0.95;;;0.65;;
45232;SDS011;30969;51.052;17.056;2022-09-02T16:37:44;1.73;;;0.70;;
45232;SDS011;30969;51.052;17.056;2022-09-02T16:42:47;2.50;;;0.80;;
45232;SDS011;30969;51.052;17.056;2022-09-02T16:47:51;1.75;;;0.88;;
45232;SDS011;30969;51.052;17.056;2022-09-02T16:52:56;1.88;;;0.88;;
45232;SDS011;30969;51.052;17.056;2022-09-02T16:57:59;6.47;;;1.05;;
45232;SDS011;30969;51.052;17.056;2022-09-02T17:03:03;2.97;;;1.05;;
45232;SDS011;30969;51.052;17.056;2022-09-02T17:08:08;1.25;;;0.80;;
45232;SDS011;30969;51.052;17.056;2022-09-02T17:13:11;5.45;;;1.00;;
45232;SDS011;30969;51.052;17.056;2022-09-02T17:18:15;4.93;;;1.73;;
45232;SDS011;30969;51.052;17.056;2022-09-02T17:23:20;1.88;;;1.10;;
45232;SDS011;30969;51.052;17.056;2022-09-02T17:28:24;4.00;;;1.52;;
45232;SDS011;30969;51.052;17.056;2022-09-02T17:33:28;3.95;;;1.10;;
45232;SDS011;30969;51.052;17.056;2022-09-02T17:38:33;4.22;;;0.98;;
45232;SDS011;30969;51.052;17.056;2022-09-02T17:43:36;3.50;;;0.82;;
45232;SDS011;30969;51.052;17.056;2022-09-02T17:48:40;2.00;;;1.23;;
45232;SDS011;30969;51.052;17.056;2022-09-02T17:54:05;8.43;;;1.52;;
45232;SDS011;30969;51.052;17.056;2022-09-02T17:59:12;4.32;;;1.20;;
45232;SDS011;30969;51.052;17.056;2022-09-02T18:04:25;2.75;;;1.55;;
45232;SDS011;30969;51.052;17.056;2022-09-02T18:09:38;3.05;;;1.30;;
45232;SDS011;30969;51.052;17.056;2022-09-02T18:14:42;5.90;;;1.38;;
45232;SDS011;30969;51.052;17.056;2022-09-02T18:19:51;3.10;;;1.38;;
45232;SDS011;30969;51.052;17.056;2022-09-02T18:25:13;5.45;;;1.42;;
45232;SDS011;30969;51.052;17.056;2022-09-02T18:30:26;4.82;;;1.60;;
45232;SDS011;30969;51.052;17.056;2022-09-02T18:35:39;3.40;;;1.77;;
45232;SDS011;30969;51.052;17.056;2022-09-02T18:40:54;4.22;;;2.08;;
45232;SDS011;30969;51.052;17.056;2022-09-02T18:46:07;5.43;;;2.20;;
45232;SDS011;30969;51.052;17.056;2022-09-02T18:51:15;5.25;;;1.90;;
45232;SDS011;30969;51.052;17.056;2022-09-02T18:56:30;4.23;;;1.90;;
45232;SDS011;30969;51.052;17.056;2022-09-02T19:01:37;5.50;;;2.22;;
45232;SDS011;30969;51.052;17.056;2022-09-02T19:06:44;3.42;;;2.00;;
45232;SDS011;30969;51.052;17.056;2022-09-02T19:11:50;3.08;;;2.10;;
45232;SDS011;30969;51.052;17.056;2022-09-02T19:16:55;6.97;;;2.67;;
45232;SDS011;30969;51.052;17.056;2022-09-02T19:22:00;4.63;;;2.25;;
45232;SDS011;30969;51.052;17.056;2022-09-02T19:27:08;3.78;;;2.13;;
45232;SDS011;30969;51.052;17.056;2022-09-02T19:32:15;5.15;;;2.28;;
45232;SDS011;30969;51.052;17.056;2022-09-02T19:37:21;11.43;;;6.82;;
45232;SDS011;30969;51.052;17.056;2022-09-02T19:42:26;5.28;;;2.60;;
45232;SDS011;30969;51.052;17.056;2022-09-02T19:47:29;3.15;;;2.33;;
45232;SDS011;30969;51.052;17.056;2022-09-02T19:52:54;4.80;;;1.90;;
45232;SDS011;30969;51.052;17.056;2022-09-02T19:57:59;4.65;;;2.33;;
45232;SDS011;30969;51.052;17.056;2022-09-02T20:03:03;5.40;;;2.20;;
45232;SDS011;30969;51.052;17.056;2022-09-02T20:08:06;5.20;;;2.00;;
45232;SDS011;30969;51.052;17.056;2022-09-02T20:13:12;4.82;;;1.80;;
45232;SDS011;30969;51.052;17.056;2022-09-02T20:18:17;4.03;;;2.10;;
45232;SDS011;30969;51.052;17.056;2022-09-02T20:23:22;3.05;;;1.90;;
45232;SDS011;30969;51.052;17.056;2022-09-02T20:28:30;4.60;;;2.50;;
45232;SDS011;30969;51.052;17.056;2022-09-02T20:33:37;4.85;;;1.95;;
45232;SDS011;30969;51.052;17.056;2022-09-02T20:38:55;3.75;;;2.13;;
45232;SDS011;30969;51.052;17.056;2022-09-02T20:44:21;3.65;;;2.20;;
45232;SDS011;30969;51.052;17.056;2022-09-02T20:49:50;4.60;;;1.83;;
45232;SDS011;30969;51.052;17.056;2022-09-02T20:55:04;4.78;;;2.03;;
45232;SDS011;30969;51.052;17.056;2022-09-02T21:00:15;3.20;;;1.80;;
45232;SDS011;30969;51.052;17.056;2022-09-02T21:05:21;6.35;;;1.77;;
45232;SDS011;30969;51.052;17.056;2022-09-02T21:10:31;10.30;;;1.85;;
45232;SDS011;30969;51.052;17.056;2022-09-02T21:15:40;3.40;;;1.60;;
45232;SDS011;30969;51.052;17.056;2022-09-02T21:20:49;6.60;;;2.00;;
45232;SDS011;30969;51.052;17.056;2022-09-02T21:26:03;4.18;;;2.30;;
45232;SDS011;30969;51.052;17.056;2022-09-02T21:31:13;2.95;;;1.75;;
45232;SDS011;30969;51.052;17.056;2022-09-02T21:36:26;4.18;;;1.85;;
45232;SDS011;30969;51.052;17.056;2022-09-02T21:41:32;3.28;;;1.85;;
45232;SDS011;30969;51.052;17.056;2022-09-02T21:46:43;3.60;;;2.38;;
45232;SDS011;30969;51.052;17.056;2022-09-02T21:52:01;2.80;;;1.75;;
45232;SDS011;30969;51.052;17.056;2022-09-02T22:02:45;5.25;;;3.00;;
45232;SDS011;30969;51.052;17.056;2022-09-02T22:08:00;3.60;;;2.15;;
45232;SDS011;30969;51.052;17.056;2022-09-02T22:13:10;7.68;;;3.22;;
45232;SDS011;30969;51.052;17.056;2022-09-02T22:18:17;4.60;;;2.20;;
45232;SDS011;30969;51.052;17.056;2022-09-02T22:23:25;2.65;;;1.45;;
45232;SDS011;30969;51.052;17.056;2022-09-02T22:28:33;5.20;;;2.13;;
45232;SDS011;30969;51.052;17.056;2022-09-02T22:33:43;5.97;;;1.95;;
45232;SDS011;30969;51.052;17.056;2022-09-02T22:38:56;4.57;;;2.15;;
45232;SDS011;30969;51.052;17.056;2022-09-02T22:44:02;4.90;;;1.83;;
45232;SDS011;30969;51.052;17.056;2022-09-02T22:49:12;4.85;;;1.80;;
45232;SDS011;30969;51.052;17.056;2022-09-02T22:54:44;4.97;;;2.90;;
45232;SDS011;30969;51.052;17.056;2022-09-02T22:59:50;4.00;;;2.42;;
45232;SDS011;30969;51.052;17.056;2022-09-02T23:05:09;4.03;;;2.65;;
45232;SDS011;30969;51.052;17.056;2022-09-02T23:10:39;3.17;;;1.65;;
45232;SDS011;30969;51.052;17.056;2022-09-02T23:15:50;8.43;;;2.20;;
45232;SDS011;30969;51.052;17.056;2022-09-02T23:21:04;4.55;;;2.25;;
45232;SDS011;30969;51.052;17.056;2022-09-02T23:26:20;5.35;;;3.75;;
45232;SDS011;30969;51.052;17.056;2022-09-02T23:31:38;5.60;;;3.15;;
45232;SDS011;30969;51.052;17.056;2022-09-02T23:36:55;3.75;;;2.03;;
45232;SDS011;30969;51.052;17.056;2022-09-02T23:42:06;3.92;;;1.50;;
45232;SDS011;30969;51.052;17.056;2022-09-02T23:47:13;3.03;;;1.45;;
45232;SDS011;30969;51.052;17.056;2022-09-02T23:52:30;2.22;;;1.50;;
45232;SDS011;30969;51.052;17.056;2022-09-02T23:57:50;4.28;;;2.05;;
